Amberg, Wisconsin
Current Conditions -  °F | °C
As of 6:54 PM on Thursday 30 Oct 2014 (Local Time) from KIMT Reporting Station
Overcast Overcast  
Wind Chill: 36°   Ceiling: 5000
Heat Index: 41°   Visibility: 10mi
Dew Point: 31°   Wind: 8mph
Humidity: 67%   Direction: 290°WNW
Pressure: 29.99"   Gusts: NA
Location:  45.5°N, 87.99°W
Report Text: KIMT 302354Z AUTO 29007KT 10SM FEW029 BKN050 OVC070 05/M01 A2999 RMK AO2 SLP168 60000 T00501006 10067 20050 53004
Loading
Personal Weather Stations






























Interactive Weather Map
Tropical Storm Tracking
New forecast layout! Learn more

10-Day Weather Forecast

Advertisements
Track Severe Weather on mobile